sensor_id;sensor_type;location;lat;lon;timestamp;P1;durP1;ratioP1;P2;durP2;ratioP2
4694;SDS011;2361;49.540;8.390;2022-11-20T00:01:27;2.55;;;2.35;;
4694;SDS011;2361;49.540;8.390;2022-11-20T00:03:56;4.55;;;2.88;;
4694;SDS011;2361;49.540;8.390;2022-11-20T00:06:25;6.43;;;4.55;;
4694;SDS011;2361;49.540;8.390;2022-11-20T00:08:54;12.40;;;6.20;;
4694;SDS011;2361;49.540;8.390;2022-11-20T00:11:25;16.20;;;7.68;;
4694;SDS011;2361;49.540;8.390;2022-11-20T00:13:55;11.43;;;5.90;;
4694;SDS011;2361;49.540;8.390;2022-11-20T00:16:26;2.80;;;2.60;;
4694;SDS011;2361;49.540;8.390;2022-11-20T00:18:55;2.25;;;2.15;;
4694;SDS011;2361;49.540;8.390;2022-11-20T00:21:23;5.20;;;3.85;;
4694;SDS011;2361;49.540;8.390;2022-11-20T00:23:55;11.23;;;6.93;;
4694;SDS011;2361;49.540;8.390;2022-11-20T00:26:24;3.78;;;2.95;;
4694;SDS011;2361;49.540;8.390;2022-11-20T00:28:56;5.32;;;3.10;;
4694;SDS011;2361;49.540;8.390;2022-11-20T00:31:26;9.57;;;6.15;;
4694;SDS011;2361;49.540;8.390;2022-11-20T00:33:54;15.10;;;6.57;;
4694;SDS011;2361;49.540;8.390;2022-11-20T00:36:22;5.65;;;3.80;;
4694;SDS011;2361;49.540;8.390;2022-11-20T00:38:52;18.55;;;7.93;;
4694;SDS011;2361;49.540;8.390;2022-11-20T00:41:22;5.65;;;4.53;;
4694;SDS011;2361;49.540;8.390;2022-11-20T00:43:51;9.23;;;5.20;;
4694;SDS011;2361;49.540;8.390;2022-11-20T00:46:20;2.25;;;2.10;;
4694;SDS011;2361;49.540;8.390;2022-11-20T00:48:50;6.15;;;3.28;;
4694;SDS011;2361;49.540;8.390;2022-11-20T00:51:18;6.20;;;3.17;;
4694;SDS011;2361;49.540;8.390;2022-11-20T00:53:48;8.60;;;4.68;;
4694;SDS011;2361;49.540;8.390;2022-11-20T00:56:16;2.97;;;2.65;;
4694;SDS011;2361;49.540;8.390;2022-11-20T00:58:45;2.70;;;2.53;;
4694;SDS011;2361;49.540;8.390;2022-11-20T01:01:16;3.15;;;2.95;;
4694;SDS011;2361;49.540;8.390;2022-11-20T01:03:53;5.47;;;3.90;;
4694;SDS011;2361;49.540;8.390;2022-11-20T01:06:23;6.95;;;3.75;;
4694;SDS011;2361;49.540;8.390;2022-11-20T01:08:52;3.17;;;2.80;;
4694;SDS011;2361;49.540;8.390;2022-11-20T01:11:26;5.25;;;3.35;;
4694;SDS011;2361;49.540;8.390;2022-11-20T01:13:56;2.55;;;2.35;;
4694;SDS011;2361;49.540;8.390;2022-11-20T01:16:29;3.93;;;2.93;;
4694;SDS011;2361;49.540;8.390;2022-11-20T01:19:03;12.07;;;6.30;;
4694;SDS011;2361;49.540;8.390;2022-11-20T01:21:37;5.22;;;4.05;;
4694;SDS011;2361;49.540;8.390;2022-11-20T01:24:08;3.33;;;3.00;;
4694;SDS011;2361;49.540;8.390;2022-11-20T01:26:39;8.52;;;4.97;;
4694;SDS011;2361;49.540;8.390;2022-11-20T01:29:10;10.20;;;5.72;;
4694;SDS011;2361;49.540;8.390;2022-11-20T01:31:41;11.98;;;5.85;;
4694;SDS011;2361;49.540;8.390;2022-11-20T01:34:11;7.90;;;4.95;;
4694;SDS011;2361;49.540;8.390;2022-11-20T01:36:40;4.40;;;2.60;;
4694;SDS011;2361;49.540;8.390;2022-11-20T01:39:13;2.65;;;2.42;;
4694;SDS011;2361;49.540;8.390;2022-11-20T01:41:43;3.83;;;3.17;;
4694;SDS011;2361;49.540;8.390;2022-11-20T01:47:37;2.85;;;2.60;;
4694;SDS011;2361;49.540;8.390;2022-11-20T01:52:51;2.38;;;2.15;;
4694;SDS011;2361;49.540;8.390;2022-11-20T01:55:25;2.00;;;1.80;;
4694;SDS011;2361;49.540;8.390;2022-11-20T01:57:57;4.25;;;2.95;;
4694;SDS011;2361;49.540;8.390;2022-11-20T02:00:26;2.60;;;2.40;;
4694;SDS011;2361;49.540;8.390;2022-11-20T02:02:53;2.58;;;2.25;;
4694;SDS011;2361;49.540;8.390;2022-11-20T02:05:35;2.75;;;2.47;;
4694;SDS011;2361;49.540;8.390;2022-11-20T02:08:12;3.67;;;2.60;;
4694;SDS011;2361;49.540;8.390;2022-11-20T02:10:39;7.13;;;3.67;;
4694;SDS011;2361;49.540;8.390;2022-11-20T02:13:06;6.40;;;4.43;;
4694;SDS011;2361;49.540;8.390;2022-11-20T02:15:52;2.30;;;2.13;;
4694;SDS011;2361;49.540;8.390;2022-11-20T02:18:20;1.83;;;1.73;;
4694;SDS011;2361;49.540;8.390;2022-11-20T02:20:48;3.60;;;2.17;;
4694;SDS011;2361;49.540;8.390;2022-11-20T02:23:27;3.83;;;2.80;;
4694;SDS011;2361;49.540;8.390;2022-11-20T02:26:24;3.03;;;2.40;;
4694;SDS011;2361;49.540;8.390;2022-11-20T02:28:54;2.20;;;2.10;;
4694;SDS011;2361;49.540;8.390;2022-11-20T02:31:21;5.15;;;3.10;;
4694;SDS011;2361;49.540;8.390;2022-11-20T02:33:53;2.00;;;1.90;;
4694;SDS011;2361;49.540;8.390;2022-11-20T02:36:24;8.00;;;3.92;;
4694;SDS011;2361;49.540;8.390;2022-11-20T02:38:53;3.65;;;2.63;;
4694;SDS011;2361;49.540;8.390;2022-11-20T02:41:20;4.15;;;3.35;;
4694;SDS011;2361;49.540;8.390;2022-11-20T02:43:48;4.00;;;2.53;;
4694;SDS011;2361;49.540;8.390;2022-11-20T02:46:15;3.50;;;2.40;;
4694;SDS011;2361;49.540;8.390;2022-11-20T02:48:42;3.08;;;2.78;;
4694;SDS011;2361;49.540;8.390;2022-11-20T02:51:09;3.10;;;2.83;;
4694;SDS011;2361;49.540;8.390;2022-11-20T02:53:36;2.20;;;2.00;;
4694;SDS011;2361;49.540;8.390;2022-11-20T02:56:03;4.38;;;2.05;;
4694;SDS011;2361;49.540;8.390;2022-11-20T02:58:30;4.70;;;2.88;;
4694;SDS011;2361;49.540;8.390;2022-11-20T03:00:57;3.28;;;2.15;;
4694;SDS011;2361;49.540;8.390;2022-11-20T03:03:24;3.05;;;2.08;;
4694;SDS011;2361;49.540;8.390;2022-11-20T03:05:51;3.03;;;2.40;;
4694;SDS011;2361;49.540;8.390;2022-11-20T03:08:18;2.90;;;2.15;;
4694;SDS011;2361;49.540;8.390;2022-11-20T03:10:45;2.78;;;2.17;;
4694;SDS011;2361;49.540;8.390;2022-11-20T03:13:12;2.92;;;2.58;;
4694;SDS011;2361;49.540;8.390;2022-11-20T03:15:39;5.40;;;2.67;;
4694;SDS011;2361;49.540;8.390;2022-11-20T03:18:06;3.35;;;2.55;;
4694;SDS011;2361;49.540;8.390;2022-11-20T03:20:33;3.10;;;2.15;;
4694;SDS011;2361;49.540;8.390;2022-11-20T03:23:00;2.70;;;2.47;;
4694;SDS011;2361;49.540;8.390;2022-11-20T03:25:28;2.75;;;2.40;;
4694;SDS011;2361;49.540;8.390;2022-11-20T03:27:55;3.72;;;2.55;;
4694;SDS011;2361;49.540;8.390;2022-11-20T03:30:22;6.75;;;4.45;;
4694;SDS011;2361;49.540;8.390;2022-11-20T03:32:54;7.60;;;3.63;;
4694;SDS011;2361;49.540;8.390;2022-11-20T03:35:21;3.33;;;3.03;;
4694;SDS011;2361;49.540;8.390;2022-11-20T03:37:48;6.50;;;3.47;;
4694;SDS011;2361;49.540;8.390;2022-11-20T03:40:15;2.22;;;2.03;;
4694;SDS011;2361;49.540;8.390;2022-11-20T03:42:42;2.35;;;2.15;;
4694;SDS011;2361;49.540;8.390;2022-11-20T03:45:13;2.00;;;1.85;;
4694;SDS011;2361;49.540;8.390;2022-11-20T03:47:42;1.98;;;1.90;;
4694;SDS011;2361;49.540;8.390;2022-11-20T03:50:11;2.60;;;2.23;;
4694;SDS011;2361;49.540;8.390;2022-11-20T03:52:40;2.90;;;2.15;;
4694;SDS011;2361;49.540;8.390;2022-11-20T03:55:07;5.47;;;2.80;;
4694;SDS011;2361;49.540;8.390;2022-11-20T03:57:35;7.85;;;4.97;;
4694;SDS011;2361;49.540;8.390;2022-11-20T04:00:02;3.67;;;3.17;;
4694;SDS011;2361;49.540;8.390;2022-11-20T04:02:31;14.40;;;6.50;;
4694;SDS011;2361;49.540;8.390;2022-11-20T04:04:58;13.50;;;7.50;;
4694;SDS011;2361;49.540;8.390;2022-11-20T04:07:25;9.60;;;5.38;;
4694;SDS011;2361;49.540;8.390;2022-11-20T04:09:52;12.90;;;7.20;;
4694;SDS011;2361;49.540;8.390;2022-11-20T04:12:19;11.23;;;5.53;;
4694;SDS011;2361;49.540;8.390;2022-11-20T04:14:46;2.67;;;2.53;;
4694;SDS011;2361;49.540;8.390;2022-11-20T04:17:13;5.90;;;4.00;;
4694;SDS011;2361;49.540;8.390;2022-11-20T04:19:40;3.80;;;3.38;;
4694;SDS011;2361;49.540;8.390;2022-11-20T04:22:07;7.17;;;3.97;;
4694;SDS011;2361;49.540;8.390;2022-11-20T04:24:34;2.40;;;1.92;;
4694;SDS011;2361;49.540;8.390;2022-11-20T04:27:01;2.70;;;2.45;;
4694;SDS011;2361;49.540;8.390;2022-11-20T04:29:28;2.35;;;2.10;;
4694;SDS011;2361;49.540;8.390;2022-11-20T04:31:55;6.13;;;3.72;;
4694;SDS011;2361;49.540;8.390;2022-11-20T04:34:22;1.93;;;1.83;;
4694;SDS011;2361;49.540;8.390;2022-11-20T04:36:49;3.27;;;2.27;;
4694;SDS011;2361;49.540;8.390;2022-11-20T04:39:16;2.72;;;1.80;;
4694;SDS011;2361;49.540;8.390;2022-11-20T04:41:43;2.75;;;1.55;;
4694;SDS011;2361;49.540;8.390;2022-11-20T04:44:10;7.23;;;4.00;;
4694;SDS011;2361;49.540;8.390;2022-11-20T04:46:38;6.80;;;3.33;;
4694;SDS011;2361;49.540;8.390;2022-11-20T04:49:08;6.45;;;3.75;;
4694;SDS011;2361;49.540;8.390;2022-11-20T04:51:35;2.87;;;2.17;;
4694;SDS011;2361;49.540;8.390;2022-11-20T04:54:02;2.30;;;2.05;;
4694;SDS011;2361;49.540;8.390;2022-11-20T04:56:29;3.00;;;2.33;;
4694;SDS011;2361;49.540;8.390;2022-11-20T04:58:59;1.70;;;1.63;;
4694;SDS011;2361;49.540;8.390;2022-11-20T05:01:27;2.27;;;2.13;;
4694;SDS011;2361;49.540;8.390;2022-11-20T05:03:54;6.50;;;4.22;;
4694;SDS011;2361;49.540;8.390;2022-11-20T05:06:22;5.40;;;4.15;;
4694;SDS011;2361;49.540;8.390;2022-11-20T05:08:49;7.57;;;3.87;;
4694;SDS011;2361;49.540;8.390;2022-11-20T05:11:17;6.13;;;3.50;;
4694;SDS011;2361;49.540;8.390;2022-11-20T05:13:47;5.03;;;3.17;;
4694;SDS011;2361;49.540;8.390;2022-11-20T05:16:16;2.90;;;2.03;;
4694;SDS011;2361;49.540;8.390;2022-11-20T05:18:46;2.00;;;1.87;;
4694;SDS011;2361;49.540;8.390;2022-11-20T05:21:13;1.92;;;1.80;;
4694;SDS011;2361;49.540;8.390;2022-11-20T05:23:41;3.13;;;2.13;;
4694;SDS011;2361;49.540;8.390;2022-11-20T05:26:14;3.60;;;2.92;;
4694;SDS011;2361;49.540;8.390;2022-11-20T05:28:47;5.57;;;4.22;;
4694;SDS011;2361;49.540;8.390;2022-11-20T05:31:23;3.80;;;2.60;;
4694;SDS011;2361;49.540;8.390;2022-11-20T05:33:53;2.27;;;2.00;;
4694;SDS011;2361;49.540;8.390;2022-11-20T05:36:22;2.60;;;2.30;;
4694;SDS011;2361;49.540;8.390;2022-11-20T05:38:50;1.83;;;1.70;;
4694;SDS011;2361;49.540;8.390;2022-11-20T05:41:20;2.87;;;2.17;;
4694;SDS011;2361;49.540;8.390;2022-11-20T05:43:48;2.53;;;2.17;;
4694;SDS011;2361;49.540;8.390;2022-11-20T05:46:17;11.50;;;5.07;;
4694;SDS011;2361;49.540;8.390;2022-11-20T05:48:51;9.47;;;5.00;;
4694;SDS011;2361;49.540;8.390;2022-11-20T05:51:18;3.37;;;2.87;;
4694;SDS011;2361;49.540;8.390;2022-11-20T05:53:46;4.80;;;3.40;;
4694;SDS011;2361;49.540;8.390;2022-11-20T05:56:18;4.30;;;3.07;;
4694;SDS011;2361;49.540;8.390;2022-11-20T05:58:47;4.67;;;3.77;;
4694;SDS011;2361;49.540;8.390;2022-11-20T06:01:22;3.47;;;2.27;;
4694;SDS011;2361;49.540;8.390;2022-11-20T06:03:52;2.20;;;2.10;;
4694;SDS011;2361;49.540;8.390;2022-11-20T06:06:20;2.97;;;2.53;;
4694;SDS011;2361;49.540;8.390;2022-11-20T06:08:47;5.63;;;3.97;;
4694;SDS011;2361;49.540;8.390;2022-11-20T06:11:15;3.20;;;2.75;;
4694;SDS011;2361;49.540;8.390;2022-11-20T06:13:43;5.87;;;4.30;;
4694;SDS011;2361;49.540;8.390;2022-11-20T06:16:11;6.32;;;4.03;;
4694;SDS011;2361;49.540;8.390;2022-11-20T06:18:42;3.50;;;3.10;;
4694;SDS011;2361;49.540;8.390;2022-11-20T06:21:10;2.57;;;2.47;;
4694;SDS011;2361;49.540;8.390;2022-11-20T06:23:40;5.77;;;3.97;;
4694;SDS011;2361;49.540;8.390;2022-11-20T06:26:18;6.63;;;4.93;;
4694;SDS011;2361;49.540;8.390;2022-11-20T06:28:53;6.32;;;4.25;;
4694;SDS011;2361;49.540;8.390;2022-11-20T06:31:23;2.13;;;2.03;;
4694;SDS011;2361;49.540;8.390;2022-11-20T06:33:53;3.27;;;2.13;;
4694;SDS011;2361;49.540;8.390;2022-11-20T06:36:21;4.35;;;2.90;;
4694;SDS011;2361;49.540;8.390;2022-11-20T06:38:49;12.80;;;6.67;;
4694;SDS011;2361;49.540;8.390;2022-11-20T06:41:17;7.40;;;4.30;;
4694;SDS011;2361;49.540;8.390;2022-11-20T06:43:46;5.70;;;3.60;;
4694;SDS011;2361;49.540;8.390;2022-11-20T06:46:14;6.55;;;4.45;;
4694;SDS011;2361;49.540;8.390;2022-11-20T06:48:46;6.90;;;4.25;;
4694;SDS011;2361;49.540;8.390;2022-11-20T06:51:14;11.05;;;6.10;;
4694;SDS011;2361;49.540;8.390;2022-11-20T06:53:41;10.63;;;5.85;;
4694;SDS011;2361;49.540;8.390;2022-11-20T06:56:08;12.00;;;5.60;;
4694;SDS011;2361;49.540;8.390;2022-11-20T06:58:35;4.55;;;3.05;;
4694;SDS011;2361;49.540;8.390;2022-11-20T07:01:07;2.07;;;1.97;;
4694;SDS011;2361;49.540;8.390;2022-11-20T07:03:39;3.80;;;2.27;;
4694;SDS011;2361;49.540;8.390;2022-11-20T07:06:07;2.75;;;2.50;;
4694;SDS011;2361;49.540;8.390;2022-11-20T07:08:35;6.23;;;3.50;;
4694;SDS011;2361;49.540;8.390;2022-11-20T07:11:04;2.47;;;2.20;;
4694;SDS011;2361;49.540;8.390;2022-11-20T07:13:32;11.90;;;3.70;;
4694;SDS011;2361;49.540;8.390;2022-11-20T07:16:00;11.93;;;6.25;;
4694;SDS011;2361;49.540;8.390;2022-11-20T07:18:30;16.27;;;6.00;;
4694;SDS011;2361;49.540;8.390;2022-11-20T07:21:01;13.57;;;5.30;;
4694;SDS011;2361;49.540;8.390;2022-11-20T07:23:34;7.10;;;4.40;;
4694;SDS011;2361;49.540;8.390;2022-11-20T07:26:04;3.27;;;2.50;;
4694;SDS011;2361;49.540;8.390;2022-11-20T07:28:33;4.80;;;3.37;;
4694;SDS011;2361;49.540;8.390;2022-11-20T07:31:00;2.50;;;2.20;;
4694;SDS011;2361;49.540;8.390;2022-11-20T07:33:28;3.70;;;2.47;;
4694;SDS011;2361;49.540;8.390;2022-11-20T07:35:55;3.90;;;3.17;;
4694;SDS011;2361;49.540;8.390;2022-11-20T07:38:26;4.23;;;2.53;;
4694;SDS011;2361;49.540;8.390;2022-11-20T07:40:54;3.37;;;2.63;;
4694;SDS011;2361;49.540;8.390;2022-11-20T07:43:24;4.27;;;3.20;;
4694;SDS011;2361;49.540;8.390;2022-11-20T07:45:51;8.77;;;4.27;;
4694;SDS011;2361;49.540;8.390;2022-11-20T07:48:18;7.17;;;3.70;;
4694;SDS011;2361;49.540;8.390;2022-11-20T07:50:45;14.30;;;6.37;;
4694;SDS011;2361;49.540;8.390;2022-11-20T07:53:12;10.37;;;6.20;;
4694;SDS011;2361;49.540;8.390;2022-11-20T07:55:40;14.63;;;6.90;;
4694;SDS011;2361;49.540;8.390;2022-11-20T07:58:07;10.73;;;5.73;;
4694;SDS011;2361;49.540;8.390;2022-11-20T08:00:34;14.20;;;7.20;;
4694;SDS011;2361;49.540;8.390;2022-11-20T08:03:04;8.37;;;3.80;;
4694;SDS011;2361;49.540;8.390;2022-11-20T08:05:41;14.00;;;7.53;;
4694;SDS011;2361;49.540;8.390;2022-11-20T08:08:08;14.83;;;7.50;;
4694;SDS011;2361;49.540;8.390;2022-11-20T08:10:34;22.07;;;8.63;;
4694;SDS011;2361;49.540;8.390;2022-11-20T08:13:01;16.03;;;8.00;;
4694;SDS011;2361;49.540;8.390;2022-11-20T08:15:48;11.27;;;5.60;;
4694;SDS011;2361;49.540;8.390;2022-11-20T08:18:17;16.13;;;7.47;;
4694;SDS011;2361;49.540;8.390;2022-11-20T08:21:03;17.20;;;8.53;;
4694;SDS011;2361;49.540;8.390;2022-11-20T08:23:31;19.77;;;8.43;;
4694;SDS011;2361;49.540;8.390;2022-11-20T08:25:58;15.00;;;8.00;;
4694;SDS011;2361;49.540;8.390;2022-11-20T08:28:25;13.20;;;6.07;;
4694;SDS011;2361;49.540;8.390;2022-11-20T08:30:57;8.07;;;4.20;;
4694;SDS011;2361;49.540;8.390;2022-11-20T08:33:28;41.03;;;15.87;;
4694;SDS011;2361;49.540;8.390;2022-11-20T08:35:59;12.37;;;7.10;;
4694;SDS011;2361;49.540;8.390;2022-11-20T08:38:28;10.47;;;6.20;;
4694;SDS011;2361;49.540;8.390;2022-11-20T08:40:59;17.03;;;7.60;;
4694;SDS011;2361;49.540;8.390;2022-11-20T08:43:47;10.90;;;5.97;;
4694;SDS011;2361;49.540;8.390;2022-11-20T08:46:14;13.40;;;6.10;;
4694;SDS011;2361;49.540;8.390;2022-11-20T08:48:41;14.63;;;6.30;;
4694;SDS011;2361;49.540;8.390;2022-11-20T08:51:10;5.10;;;3.97;;
4694;SDS011;2361;49.540;8.390;2022-11-20T08:53:38;14.83;;;7.90;;
4694;SDS011;2361;49.540;8.390;2022-11-20T08:56:06;14.10;;;6.90;;
4694;SDS011;2361;49.540;8.390;2022-11-20T08:58:33;10.13;;;5.17;;
4694;SDS011;2361;49.540;8.390;2022-11-20T09:01:20;5.50;;;3.83;;
4694;SDS011;2361;49.540;8.390;2022-11-20T09:03:49;9.67;;;5.57;;
4694;SDS011;2361;49.540;8.390;2022-11-20T09:06:16;15.47;;;7.17;;
4694;SDS011;2361;49.540;8.390;2022-11-20T09:08:44;12.30;;;5.70;;
4694;SDS011;2361;49.540;8.390;2022-11-20T09:11:11;14.27;;;6.50;;
4694;SDS011;2361;49.540;8.390;2022-11-20T09:13:38;20.50;;;9.43;;
4694;SDS011;2361;49.540;8.390;2022-11-20T09:16:06;15.47;;;7.40;;
4694;SDS011;2361;49.540;8.390;2022-11-20T09:18:35;7.60;;;4.57;;
4694;SDS011;2361;49.540;8.390;2022-11-20T09:21:05;12.60;;;7.13;;
4694;SDS011;2361;49.540;8.390;2022-11-20T09:23:37;8.00;;;4.53;;
4694;SDS011;2361;49.540;8.390;2022-11-20T09:26:12;8.47;;;4.97;;
4694;SDS011;2361;49.540;8.390;2022-11-20T09:28:40;10.47;;;5.37;;
4694;SDS011;2361;49.540;8.390;2022-11-20T09:31:07;10.77;;;5.30;;
4694;SDS011;2361;49.540;8.390;2022-11-20T09:33:43;10.60;;;5.63;;
4694;SDS011;2361;49.540;8.390;2022-11-20T09:36:10;13.43;;;6.90;;
4694;SDS011;2361;49.540;8.390;2022-11-20T09:38:37;9.57;;;5.60;;
4694;SDS011;2361;49.540;8.390;2022-11-20T09:41:05;6.00;;;4.00;;
4694;SDS011;2361;49.540;8.390;2022-11-20T09:46:53;5.53;;;3.10;;
4694;SDS011;2361;49.540;8.390;2022-11-20T09:55:24;11.30;;;6.00;;
4694;SDS011;2361;49.540;8.390;2022-11-20T09:57:54;17.13;;;8.07;;
4694;SDS011;2361;49.540;8.390;2022-11-20T10:00:23;16.67;;;8.37;;
4694;SDS011;2361;49.540;8.390;2022-11-20T10:05:44;10.37;;;5.67;;
4694;SDS011;2361;49.540;8.390;2022-11-20T10:08:36;10.33;;;4.90;;
4694;SDS011;2361;49.540;8.390;2022-11-20T10:11:30;14.13;;;7.10;;
4694;SDS011;2361;49.540;8.390;2022-11-20T10:19:55;2.47;;;2.30;;
4694;SDS011;2361;49.540;8.390;2022-11-20T10:25:38;4.57;;;2.87;;
4694;SDS011;2361;49.540;8.390;2022-11-20T10:31:08;7.13;;;3.90;;
4694;SDS011;2361;49.540;8.390;2022-11-20T10:33:42;2.63;;;2.40;;
4694;SDS011;2361;49.540;8.390;2022-11-20T10:36:40;2.47;;;2.27;;
4694;SDS011;2361;49.540;8.390;2022-11-20T10:39:21;4.10;;;2.73;;
4694;SDS011;2361;49.540;8.390;2022-11-20T10:42:00;5.17;;;3.40;;
4694;SDS011;2361;49.540;8.390;2022-11-20T10:44:28;3.37;;;2.53;;
4694;SDS011;2361;49.540;8.390;2022-11-20T10:47:20;7.77;;;3.37;;
4694;SDS011;2361;49.540;8.390;2022-11-20T10:49:48;5.33;;;3.03;;
4694;SDS011;2361;49.540;8.390;2022-11-20T11:00:44;8.87;;;5.63;;
4694;SDS011;2361;49.540;8.390;2022-11-20T11:03:23;10.27;;;5.17;;
4694;SDS011;2361;49.540;8.390;2022-11-20T11:05:54;11.70;;;5.57;;
4694;SDS011;2361;49.540;8.390;2022-11-20T11:08:31;10.83;;;6.03;;
4694;SDS011;2361;49.540;8.390;2022-11-20T11:19:17;3.30;;;2.53;;
4694;SDS011;2361;49.540;8.390;2022-11-20T11:21:48;3.03;;;2.50;;
4694;SDS011;2361;49.540;8.390;2022-11-20T11:27:12;3.17;;;2.90;;
4694;SDS011;2361;49.540;8.390;2022-11-20T11:29:44;4.60;;;3.67;;
4694;SDS011;2361;49.540;8.390;2022-11-20T11:32:13;6.97;;;3.73;;
4694;SDS011;2361;49.540;8.390;2022-11-20T11:34:41;7.23;;;4.53;;
4694;SDS011;2361;49.540;8.390;2022-11-20T11:37:16;2.67;;;2.47;;
4694;SDS011;2361;49.540;8.390;2022-11-20T11:39:47;5.00;;;3.63;;
4694;SDS011;2361;49.540;8.390;2022-11-20T11:42:29;6.13;;;3.90;;
4694;SDS011;2361;49.540;8.390;2022-11-20T11:44:58;6.07;;;3.47;;
4694;SDS011;2361;49.540;8.390;2022-11-20T11:47:33;4.03;;;3.60;;
4694;SDS011;2361;49.540;8.390;2022-11-20T11:52:44;12.50;;;5.97;;
4694;SDS011;2361;49.540;8.390;2022-11-20T12:04:42;8.27;;;4.57;;
4694;SDS011;2361;49.540;8.390;2022-11-20T12:10:17;6.20;;;3.80;;
4694;SDS011;2361;49.540;8.390;2022-11-20T12:12:54;14.20;;;7.20;;
4694;SDS011;2361;49.540;8.390;2022-11-20T12:15:33;5.97;;;4.13;;
4694;SDS011;2361;49.540;8.390;2022-11-20T12:18:01;5.20;;;4.00;;
4694;SDS011;2361;49.540;8.390;2022-11-20T12:20:33;9.30;;;4.47;;
4694;SDS011;2361;49.540;8.390;2022-11-20T12:23:10;11.40;;;6.10;;
4694;SDS011;2361;49.540;8.390;2022-11-20T12:26:11;18.00;;;8.80;;
4694;SDS011;2361;49.540;8.390;2022-11-20T12:29:07;8.27;;;4.57;;
4694;SDS011;2361;49.540;8.390;2022-11-20T12:35:00;11.03;;;6.20;;
4694;SDS011;2361;49.540;8.390;2022-11-20T12:41:01;8.63;;;4.50;;
4694;SDS011;2361;49.540;8.390;2022-11-20T13:08:23;4.70;;;3.67;;
4694;SDS011;2361;49.540;8.390;2022-11-20T13:10:57;4.60;;;3.17;;
4694;SDS011;2361;49.540;8.390;2022-11-20T13:16:36;4.47;;;3.30;;
4694;SDS011;2361;49.540;8.390;2022-11-20T13:19:31;7.77;;;4.07;;
4694;SDS011;2361;49.540;8.390;2022-11-20T13:21:59;6.10;;;4.20;;
4694;SDS011;2361;49.540;8.390;2022-11-20T13:24:28;7.27;;;4.90;;
4694;SDS011;2361;49.540;8.390;2022-11-20T13:29:43;6.50;;;4.63;;
4694;SDS011;2361;49.540;8.390;2022-11-20T13:32:14;3.57;;;2.87;;
4694;SDS011;2361;49.540;8.390;2022-11-20T13:34:54;5.67;;;3.57;;
4694;SDS011;2361;49.540;8.390;2022-11-20T13:37:28;3.17;;;2.90;;
4694;SDS011;2361;49.540;8.390;2022-11-20T13:46:05;2.17;;;2.03;;
4694;SDS011;2361;49.540;8.390;2022-11-20T13:48:38;3.83;;;1.70;;
4694;SDS011;2361;49.540;8.390;2022-11-20T13:51:15;2.33;;;2.13;;
4694;SDS011;2361;49.540;8.390;2022-11-20T14:00:15;4.53;;;3.50;;
4694;SDS011;2361;49.540;8.390;2022-11-20T14:03:16;1.97;;;1.87;;
4694;SDS011;2361;49.540;8.390;2022-11-20T14:06:10;1.43;;;1.33;;
4694;SDS011;2361;49.540;8.390;2022-11-20T14:09:00;1.23;;;1.13;;
4694;SDS011;2361;49.540;8.390;2022-11-20T14:11:29;1.57;;;1.40;;
4694;SDS011;2361;49.540;8.390;2022-11-20T14:16:37;1.17;;;1.07;;
4694;SDS011;2361;49.540;8.390;2022-11-20T14:21:47;0.80;;;0.80;;
4694;SDS011;2361;49.540;8.390;2022-11-20T14:24:19;2.07;;;1.70;;
4694;SDS011;2361;49.540;8.390;2022-11-20T14:26:49;0.30;;;0.30;;
4694;SDS011;2361;49.540;8.390;2022-11-20T14:29:22;1.00;;;1.00;;
4694;SDS011;2361;49.540;8.390;2022-11-20T14:31:55;1.20;;;1.20;;
4694;SDS011;2361;49.540;8.390;2022-11-20T14:34:26;1.33;;;1.23;;
4694;SDS011;2361;49.540;8.390;2022-11-20T14:37:00;1.27;;;1.27;;
4694;SDS011;2361;49.540;8.390;2022-11-20T14:39:49;1.73;;;1.63;;
4694;SDS011;2361;49.540;8.390;2022-11-20T14:42:20;2.50;;;1.97;;
4694;SDS011;2361;49.540;8.390;2022-11-20T14:44:55;0.80;;;0.80;;
4694;SDS011;2361;49.540;8.390;2022-11-20T14:47:25;1.93;;;1.03;;
4694;SDS011;2361;49.540;8.390;2022-11-20T14:49:58;1.10;;;0.90;;
4694;SDS011;2361;49.540;8.390;2022-11-20T14:52:32;0.57;;;0.57;;
4694;SDS011;2361;49.540;8.390;2022-11-20T14:54:59;0.87;;;0.87;;
4694;SDS011;2361;49.540;8.390;2022-11-20T14:57:34;1.00;;;1.00;;
4694;SDS011;2361;49.540;8.390;2022-11-20T15:00:08;0.53;;;0.53;;
4694;SDS011;2361;49.540;8.390;2022-11-20T15:02:56;0.63;;;0.63;;
4694;SDS011;2361;49.540;8.390;2022-11-20T15:05:46;1.50;;;0.80;;
4694;SDS011;2361;49.540;8.390;2022-11-20T15:08:17;0.70;;;0.70;;
4694;SDS011;2361;49.540;8.390;2022-11-20T15:10:50;0.50;;;0.50;;
4694;SDS011;2361;49.540;8.390;2022-11-20T15:13:25;0.53;;;0.53;;
4694;SDS011;2361;49.540;8.390;2022-11-20T15:15:58;1.47;;;0.67;;
4694;SDS011;2361;49.540;8.390;2022-11-20T15:18:36;0.63;;;0.63;;
4694;SDS011;2361;49.540;8.390;2022-11-20T15:21:12;0.60;;;0.60;;
4694;SDS011;2361;49.540;8.390;2022-11-20T15:23:47;1.20;;;1.10;;
4694;SDS011;2361;49.540;8.390;2022-11-20T15:26:24;1.03;;;1.00;;
4694;SDS011;2361;49.540;8.390;2022-11-20T15:28:55;1.00;;;0.90;;
4694;SDS011;2361;49.540;8.390;2022-11-20T15:31:22;1.43;;;1.13;;
4694;SDS011;2361;49.540;8.390;2022-11-20T15:33:50;1.10;;;1.10;;
4694;SDS011;2361;49.540;8.390;2022-11-20T15:36:17;0.80;;;0.80;;
4694;SDS011;2361;49.540;8.390;2022-11-20T15:38:44;1.10;;;1.00;;
4694;SDS011;2361;49.540;8.390;2022-11-20T15:41:12;0.87;;;0.87;;
4694;SDS011;2361;49.540;8.390;2022-11-20T15:43:39;1.47;;;1.23;;
4694;SDS011;2361;49.540;8.390;2022-11-20T15:46:08;1.40;;;1.30;;
4694;SDS011;2361;49.540;8.390;2022-11-20T15:48:40;1.87;;;1.30;;
4694;SDS011;2361;49.540;8.390;2022-11-20T15:53:51;0.97;;;0.97;;
4694;SDS011;2361;49.540;8.390;2022-11-20T15:56:18;1.77;;;1.30;;
4694;SDS011;2361;49.540;8.390;2022-11-20T15:58:45;0.83;;;0.83;;
4694;SDS011;2361;49.540;8.390;2022-11-20T16:01:12;1.40;;;1.40;;
4694;SDS011;2361;49.540;8.390;2022-11-20T16:03:42;1.60;;;1.47;;
4694;SDS011;2361;49.540;8.390;2022-11-20T16:06:09;2.17;;;1.80;;
4694;SDS011;2361;49.540;8.390;2022-11-20T16:08:37;3.80;;;1.17;;
4694;SDS011;2361;49.540;8.390;2022-11-20T16:11:04;1.80;;;1.00;;
4694;SDS011;2361;49.540;8.390;2022-11-20T16:13:31;1.07;;;1.03;;
4694;SDS011;2361;49.540;8.390;2022-11-20T16:16:19;1.30;;;1.20;;
4694;SDS011;2361;49.540;8.390;2022-11-20T16:18:59;2.07;;;1.60;;
4694;SDS011;2361;49.540;8.390;2022-11-20T16:21:26;1.43;;;1.20;;
4694;SDS011;2361;49.540;8.390;2022-11-20T16:24:06;0.90;;;0.90;;
4694;SDS011;2361;49.540;8.390;2022-11-20T16:26:39;0.87;;;0.87;;
4694;SDS011;2361;49.540;8.390;2022-11-20T16:29:07;1.57;;;1.10;;
4694;SDS011;2361;49.540;8.390;2022-11-20T16:31:34;0.90;;;0.90;;
4694;SDS011;2361;49.540;8.390;2022-11-20T16:34:03;1.30;;;1.30;;
4694;SDS011;2361;49.540;8.390;2022-11-20T16:36:39;0.90;;;0.90;;
4694;SDS011;2361;49.540;8.390;2022-11-20T16:39:08;0.63;;;0.63;;
4694;SDS011;2361;49.540;8.390;2022-11-20T16:41:35;0.60;;;0.60;;
4694;SDS011;2361;49.540;8.390;2022-11-20T16:44:05;1.03;;;1.03;;
4694;SDS011;2361;49.540;8.390;2022-11-20T16:46:36;1.07;;;1.07;;
4694;SDS011;2361;49.540;8.390;2022-11-20T16:49:06;1.80;;;1.70;;
4694;SDS011;2361;49.540;8.390;2022-11-20T16:51:38;0.73;;;0.73;;
4694;SDS011;2361;49.540;8.390;2022-11-20T16:54:06;2.07;;;1.20;;
4694;SDS011;2361;49.540;8.390;2022-11-20T16:56:35;1.30;;;1.30;;
4694;SDS011;2361;49.540;8.390;2022-11-20T16:59:02;1.80;;;1.70;;
4694;SDS011;2361;49.540;8.390;2022-11-20T17:01:30;1.30;;;1.23;;
4694;SDS011;2361;49.540;8.390;2022-11-20T17:04:01;1.83;;;1.23;;
4694;SDS011;2361;49.540;8.390;2022-11-20T17:06:33;0.70;;;0.67;;
4694;SDS011;2361;49.540;8.390;2022-11-20T17:09:04;14.73;;;5.70;;
4694;SDS011;2361;49.540;8.390;2022-11-20T17:11:32;2.60;;;2.33;;
4694;SDS011;2361;49.540;8.390;2022-11-20T17:14:00;1.17;;;1.17;;
4694;SDS011;2361;49.540;8.390;2022-11-20T17:16:32;1.10;;;1.10;;
4694;SDS011;2361;49.540;8.390;2022-11-20T17:19:01;1.37;;;1.30;;
4694;SDS011;2361;49.540;8.390;2022-11-20T17:21:30;0.73;;;0.73;;
4694;SDS011;2361;49.540;8.390;2022-11-20T17:23:59;1.17;;;1.17;;
4694;SDS011;2361;49.540;8.390;2022-11-20T17:26:31;0.93;;;0.93;;
4694;SDS011;2361;49.540;8.390;2022-11-20T17:29:03;1.43;;;1.37;;
4694;SDS011;2361;49.540;8.390;2022-11-20T17:31:36;0.83;;;0.83;;
4694;SDS011;2361;49.540;8.390;2022-11-20T17:34:05;0.70;;;0.70;;
4694;SDS011;2361;49.540;8.390;2022-11-20T17:36:33;0.30;;;0.30;;
4694;SDS011;2361;49.540;8.390;2022-11-20T17:39:03;0.57;;;0.53;;